Time;durP1;ratioP1;P1;durP2;ratioP2;P2;SDS_P1;SDS_P2;PMS_P1;PMS_P2;Temp;Humidity;BMP_temperature;BMP_pressure;BME280_temperature;BME280_humidity;BME280_pressure;Samples;Min_cycle;Max_cycle;Signal;HPM_P1;HPM_P2
2022/06/27 00:00:56;;;;;;;;;;;;;;;22.16;85.20;97218.80;585897;242;64918;-72
2022/06/27 00:03:23;;;;;;;;;;;;;;;22.16;85.21;97212.66;585873;242;68506;-72
2022/06/27 00:05:51;;;;;;;;;;;;;;;22.15;85.17;97211.03;585875;242;66226;-73
2022/06/27 00:08:18;;;;;;;;;;;;;;;22.17;85.18;97224.95;585859;242;62711;-73
2022/06/27 00:10:46;;;;;;;;;;;;;;;22.16;85.17;97218.80;585883;242;66345;-73
2022/06/27 00:13:13;;;;;;;;;;;;;;;22.16;85.19;97223.36;585908;242;66232;-73
2022/06/27 00:15:40;;;;;;;;;;;;;;;22.16;85.19;97229.51;585859;242;62736;-73
2022/06/27 00:18:08;;;;;;;;;;;;;;;22.16;85.20;97226.83;585862;242;66017;-73
2022/06/27 00:20:36;;;;;;;;;;;;;;;22.16;85.16;97220.68;585870;242;66233;-73
2022/06/27 00:23:03;;;;;;;;;;;;;;;22.16;85.16;97224.16;585850;242;62765;-73
2022/06/27 00:25:31;;;;;;;;;;;;;;;22.16;85.15;97229.51;585908;242;68726;-73
2022/06/27 00:27:58;;;;;;;;;;;;;;;22.17;85.14;97232.98;585829;242;68291;-72
2022/06/27 00:30:26;;;;;;;;;;;;;;;22.16;85.20;97229.51;585852;242;62397;-73
2022/06/27 00:32:54;;;;;;;;;;;;;;;22.16;85.17;97228.71;585882;242;66155;-73
2022/06/27 00:35:21;;;;;;;;;;;;;;;22.15;85.22;97227.92;585850;242;68511;-72
2022/06/27 00:37:49;;;;;;;;;;;;;;;22.15;85.22;97225.23;585874;242;65390;-73
2022/06/27 00:40:16;;;;;;;;;;;;;;;22.17;85.23;97227.63;585859;242;68685;-73
2022/06/27 00:42:44;;;;;;;;;;;;;;;22.16;85.25;97220.68;585881;242;66442;-72
2022/06/27 00:45:12;;;;;;;;;;;;;;;22.16;85.26;97224.16;585849;242;62971;-73
2022/06/27 00:47:39;;;;;;;;;;;;;;;22.16;85.25;97223.36;585822;242;67479;-73
2022/06/27 00:50:08;;;;;;;;;;;;;;;22.16;85.26;97226.83;585901;242;68588;-73
2022/06/27 00:52:35;;;;;;;;;;;;;;;22.16;85.23;97223.36;585810;242;65056;-73
2022/06/27 00:55:03;;;;;;;;;;;;;;;22.15;85.27;97219.06;585809;242;68710;-72
2022/06/27 00:57:31;;;;;;;;;;;;;;;22.16;85.28;97224.16;585812;242;66494;-73
2022/06/27 00:59:58;;;;;;;;;;;;;;;22.16;85.25;97220.68;585823;242;62828;-73
2022/06/27 01:02:26;;;;;;;;;;;;;;;22.15;85.24;97227.09;585856;242;66492;-73
2022/06/27 01:04:53;;;;;;;;;;;;;;;22.16;85.25;97226.03;585925;242;68296;-73
2022/06/27 01:07:21;;;;;;;;;;;;;;;22.15;85.24;97227.09;585852;242;65198;-73
2022/06/27 01:09:49;;;;;;;;;;;;;;;22.15;85.26;97227.92;585824;242;68675;-73
2022/06/27 01:12:16;;;;;;;;;;;;;;;22.16;85.29;97228.71;585810;242;68857;-73
2022/06/27 01:14:44;;;;;;;;;;;;;;;22.16;85.31;97231.39;585846;242;65102;-73
2022/06/27 01:17:12;;;;;;;;;;;;;;;22.15;85.29;97230.59;585876;242;66561;-73
2022/06/27 01:19:40;;;;;;;;;;;;;;;22.15;85.31;97227.09;585836;242;69484;-73
2022/06/27 01:22:10;;;;;;;;;;;;;;;22.16;85.26;97228.71;585826;242;64885;-72
2022/06/27 01:24:37;;;;;;;;;;;;;;;22.15;85.30;97230.59;585838;242;68500;-72
2022/06/27 01:27:06;;;;;;;;;;;;;;;22.15;85.30;97225.23;585842;242;69107;-72
2022/06/27 01:29:34;;;;;;;;;;;;;;;22.15;85.30;97227.92;585940;242;62751;-72
2022/06/27 01:32:03;;;;;;;;;;;;;;;22.15;85.30;97232.45;585846;242;68889;-72
2022/06/27 01:34:32;;;;;;;;;;;;;;;22.15;85.33;97229.77;585864;242;66086;-74
2022/06/27 01:37:00;;;;;;;;;;;;;;;22.14;85.32;97233.53;585791;242;65098;-74
2022/06/27 01:39:28;;;;;;;;;;;;;;;22.14;85.32;97231.65;585853;242;68946;-75
2022/06/27 01:42:00;;;;;;;;;;;;;;;22.15;85.35;97237.80;585894;242;68832;-74
2022/06/27 01:44:30;;;;;;;;;;;;;;;22.14;85.35;97237.00;585898;242;65224;-74
2022/06/27 01:47:02;;;;;;;;;;;;;;;22.15;85.36;97235.13;585857;242;68947;-74
2022/06/27 01:49:30;;;;;;;;;;;;;;;22.13;85.35;97232.73;585820;242;67306;-74
2022/06/27 01:51:58;;;;;;;;;;;;;;;22.14;85.36;97228.17;585841;242;64950;-74
2022/06/27 01:54:26;;;;;;;;;;;;;;;22.14;85.35;97234.33;588526;240;68815;-74
2022/06/27 01:56:54;;;;;;;;;;;;;;;22.14;85.36;97230.85;590836;240;66482;-74
2022/06/27 01:59:23;;;;;;;;;;;;;;;22.14;85.38;97228.97;590795;240;65396;-74
2022/06/27 02:01:52;;;;;;;;;;;;;;;22.14;85.37;97239.67;590767;240;45719;-74
2022/06/27 02:04:20;;;;;;;;;;;;;;;22.14;85.39;97230.85;590792;240;66488;-74
2022/06/27 02:06:47;;;;;;;;;;;;;;;22.15;85.42;97235.13;590809;240;64926;-74
2022/06/27 02:09:16;;;;;;;;;;;;;;;22.14;85.41;97228.17;590825;240;68950;-74
2022/06/27 02:11:45;;;;;;;;;;;;;;;22.14;85.38;97230.85;590836;240;66478;-75
2022/06/27 02:14:14;;;;;;;;;;;;;;;22.13;85.37;97230.06;590840;240;45262;-74
2022/06/27 02:16:43;;;;;;;;;;;;;;;22.14;85.38;97236.20;590771;240;66260;-74
2022/06/27 02:19:15;;;;;;;;;;;;;;;22.13;85.43;97235.41;590785;240;68559;-74
2022/06/27 02:21:43;;;;;;;;;;;;;;;22.14;85.41;97230.85;590807;240;64926;-74
2022/06/27 02:24:11;;;;;;;;;;;;;;;22.14;85.37;97233.53;590816;240;68814;-74
2022/06/27 02:26:39;;;;;;;;;;;;;;;22.13;85.37;97235.41;590783;240;68943;-75
2022/06/27 02:29:07;;;;;;;;;;;;;;;22.13;85.36;97231.94;590778;240;64964;-74
2022/06/27 02:31:36;;;;;;;;;;;;;;;22.13;85.37;97235.41;590809;240;68593;-74
2022/06/27 02:34:03;;;;;;;;;;;;;;;22.14;85.37;97233.53;590781;240;68760;-75
2022/06/27 02:36:32;;;;;;;;;;;;;;;22.13;85.36;97231.94;590825;240;65122;-74
2022/06/27 02:39:01;;;;;;;;;;;;;;;22.13;85.36;97230.06;590746;240;68930;-75
2022/06/27 02:41:30;;;;;;;;;;;;;;;22.13;85.38;97232.73;590761;240;68513;-75
2022/06/27 02:43:59;;;;;;;;;;;;;;;22.13;85.43;97240.77;590762;240;65395;-74
2022/06/27 02:46:28;;;;;;;;;;;;;;;22.14;85.45;97241.56;590798;240;66195;-74
2022/06/27 02:48:57;;;;;;;;;;;;;;;22.13;85.44;97238.09;590811;240;68519;-75
2022/06/27 02:51:26;;;;;;;;;;;;;;;22.13;85.43;97238.09;590775;240;64887;-75
2022/06/27 02:53:58;;;;;;;;;;;;;;;22.13;85.43;97251.47;589546;240;66550;-74
2022/06/27 02:56:32;;;;;;;;;;;;;;;22.13;85.39;97239.97;587021;241;48447;-75
2022/06/27 02:59:03;;;;;;;;;;;;;;;22.14;85.21;97236.20;587152;241;65776;-74
2022/06/27 03:01:31;;;;;;;;;;;;;;;22.12;85.28;97239.14;587166;241;68724;-75
2022/06/27 03:04:00;;;;;;;;;;;;;;;22.13;85.89;97242.64;587191;241;68613;-75
2022/06/27 03:06:29;;;;;;;;;;;;;;;22.12;85.49;97239.14;587149;241;65731;-75
2022/06/27 03:08:56;;;;;;;;;;;;;;;22.12;85.60;97238.34;587187;241;68892;-74
2022/06/27 03:11:25;;;;;;;;;;;;;;;22.12;85.49;97238.34;587133;241;68810;-73
2022/06/27 03:13:54;;;;;;;;;;;;;;;22.12;85.44;97236.47;587154;241;62990;-73
2022/06/27 03:16:23;;;;;;;;;;;;;;;22.13;85.43;97234.61;587172;241;68951;-73
2022/06/27 03:18:52;;;;;;;;;;;;;;;22.13;85.43;97234.61;587121;241;68633;-73
2022/06/27 03:21:21;;;;;;;;;;;;;;;22.12;85.39;97228.44;587249;241;45029;-73
2022/06/27 03:23:51;;;;;;;;;;;;;;;22.12;85.44;97230.31;587231;241;47073;-73
2022/06/27 03:26:19;;;;;;;;;;;;;;;22.12;85.46;97235.67;587156;241;69498;-73
2022/06/27 03:28:48;;;;;;;;;;;;;;;22.12;85.50;97231.11;587190;241;42125;-73
2022/06/27 03:31:15;;;;;;;;;;;;;;;22.13;85.47;97234.61;587234;241;66443;-73
2022/06/27 03:33:45;;;;;;;;;;;;;;;22.12;85.45;97231.11;587196;241;46782;-73
2022/06/27 03:36:17;;;;;;;;;;;;;;;22.12;85.46;97232.99;587044;241;45038;-73
2022/06/27 03:38:45;;;;;;;;;;;;;;;22.12;85.45;97233.79;587211;241;68373;-73
2022/06/27 03:41:12;;;;;;;;;;;;;;;22.12;85.46;97232.99;587150;241;68595;-73
2022/06/27 03:43:40;;;;;;;;;;;;;;;22.12;85.49;97235.67;587206;241;62411;-73
2022/06/27 03:46:08;;;;;;;;;;;;;;;22.12;85.45;97232.99;587094;241;69130;-73
2022/06/27 03:51:36;;;;;;;;;;;;;;;22.12;85.42;97232.99;586930;241;45002;-73
2022/06/27 03:54:03;;;;;;;;;;;;;;;22.12;85.45;97238.34;587121;241;68384;-73
2022/06/27 03:56:32;;;;;;;;;;;;;;;22.12;85.44;97238.34;587164;241;69059;-73
2022/06/27 03:58:59;;;;;;;;;;;;;;;22.11;85.44;97244.78;587160;241;62928;-73
2022/06/27 04:01:27;;;;;;;;;;;;;;;22.11;85.46;97240.23;587169;241;68421;-73
2022/06/27 04:03:55;;;;;;;;;;;;;;;22.10;85.48;97241.31;587128;241;66025;-73
2022/06/27 04:06:22;;;;;;;;;;;;;;;22.11;85.09;97244.78;587133;241;65684;-73
2022/06/27 04:08:50;;;;;;;;;;;;;;;22.12;85.76;97249.05;587133;241;68930;-73
2022/06/27 04:11:18;;;;;;;;;;;;;;;22.12;85.51;97254.41;587166;241;69474;-73
2022/06/27 04:13:47;;;;;;;;;;;;;;;22.10;85.49;97252.02;587207;241;42458;-73
2022/06/27 04:16:22;;;;;;;;;;;;;;;22.11;85.53;97245.58;587222;241;49854;-73
2022/06/27 04:19:08;;;;;;;;;;;;;;;22.10;85.52;97251.22;587243;241;43578;-74
2022/06/27 04:21:53;;;;;;;;;;;;;;;22.11;85.55;97247.46;587269;241;39069;-73
2022/06/27 04:24:29;;;;;;;;;;;;;;;22.11;85.53;97244.78;587324;241;48506;-74
2022/06/27 04:26:58;;;;;;;;;;;;;;;22.10;85.54;97245.88;587230;241;47184;-75
2022/06/27 04:29:26;;;;;;;;;;;;;;;22.10;85.58;97245.88;587133;239;66044;-75
2022/06/27 04:31:54;;;;;;;;;;;;;;;22.10;85.54;97245.88;587033;241;68667;-73
2022/06/27 04:34:22;;;;;;;;;;;;;;;22.10;85.54;97251.22;587156;241;68599;-73
2022/06/27 04:36:49;;;;;;;;;;;;;;;22.09;85.53;97250.40;587120;241;62872;-73
2022/06/27 04:39:19;;;;;;;;;;;;;;;22.10;85.49;97248.55;587123;241;66489;-73
2022/06/27 04:41:50;;;;;;;;;;;;;;;22.10;85.50;97243.98;587182;241;49651;-73
2022/06/27 04:44:21;;;;;;;;;;;;;;;22.10;85.50;97246.66;587119;241;66024;-73
2022/06/27 04:46:48;;;;;;;;;;;;;;;22.10;85.49;97245.88;587163;241;68872;-72
2022/06/27 04:49:18;;;;;;;;;;;;;;;22.09;85.52;97239.69;587186;241;49197;-75
2022/06/27 04:51:49;;;;;;;;;;;;;;;22.09;85.50;97239.69;587161;241;64900;-75
2022/06/27 04:54:17;;;;;;;;;;;;;;;22.09;85.50;97242.37;587122;241;68772;-73
2022/06/27 04:56:45;;;;;;;;;;;;;;;22.10;85.47;97243.19;587097;241;67040;-73
2022/06/27 04:59:13;;;;;;;;;;;;;;;22.09;85.48;97233.55;587113;241;64856;-73
2022/06/27 05:01:42;;;;;;;;;;;;;;;22.09;85.45;97239.69;587112;239;68827;-73
2022/06/27 05:04:11;;;;;;;;;;;;;;;22.10;85.47;97237.84;587189;241;46321;-73
2022/06/27 05:06:41;;;;;;;;;;;;;;;22.10;85.54;97246.66;587227;241;42626;-73
2022/06/27 05:09:09;;;;;;;;;;;;;;;22.10;85.53;97235.16;587202;241;69228;-73
2022/06/27 05:11:37;;;;;;;;;;;;;;;22.10;85.53;97240.52;587143;241;66589;-73
2022/06/27 05:14:05;;;;;;;;;;;;;;;22.10;85.54;97238.64;587198;241;65166;-73
2022/06/27 05:16:52;;;;;;;;;;;;;;;22.09;85.50;97234.34;587210;241;47155;-75
2022/06/27 05:19:21;;;;;;;;;;;;;;;22.10;85.57;97243.19;587096;241;66042;-75
2022/06/27 05:21:49;;;;;;;;;;;;;;;22.09;85.57;97237.02;587142;241;64893;-75
2022/06/27 05:24:17;;;;;;;;;;;;;;;22.09;85.55;97245.05;587140;241;69511;-75
2022/06/27 05:26:46;;;;;;;;;;;;;;;22.10;85.56;97251.22;587052;241;66266;-72
2022/06/27 05:29:14;;;;;;;;;;;;;;;22.10;85.53;97248.55;587087;241;64833;-72
2022/06/27 05:31:41;;;;;;;;;;;;;;;22.10;85.57;97251.22;587144;241;68891;-72
2022/06/27 05:34:09;;;;;;;;;;;;;;;22.09;85.53;97255.75;587109;241;68408;-72
2022/06/27 05:36:37;;;;;;;;;;;;;;;22.10;85.56;97256.58;586949;241;64994;-72
2022/06/27 05:39:05;;;;;;;;;;;;;;;22.09;85.60;97261.10;587137;241;66443;-72
2022/06/27 05:41:34;;;;;;;;;;;;;;;22.10;85.59;97267.28;587133;241;68670;-72
2022/06/27 05:44:04;;;;;;;;;;;;;;;22.09;85.58;97271.81;587085;241;44022;-72
2022/06/27 05:46:32;;;;;;;;;;;;;;;22.10;85.58;97269.96;587012;241;68827;-73
2022/06/27 05:49:04;;;;;;;;;;;;;;;22.10;85.39;97264.61;587289;241;47582;-73
2022/06/27 05:51:35;;;;;;;;;;;;;;;22.10;85.74;97272.64;587192;241;43251;-73
2022/06/27 05:54:03;;;;;;;;;;;;;;;22.11;84.43;97272.34;586050;239;68981;-73
2022/06/27 05:56:31;;;;;;;;;;;;;;;22.11;83.18;97284.94;592317;238;69563;-73
2022/06/27 05:59:02;;;;;;;;;;;;;;;22.11;84.48;97277.70;595101;238;45003;-73
2022/06/27 06:01:31;;;;;;;;;;;;;;;22.10;84.96;97283.34;594965;237;45050;-73
2022/06/27 06:03:59;;;;;;;;;;;;;;;22.10;85.02;97280.66;594938;238;68158;-72
2022/06/27 06:06:28;;;;;;;;;;;;;;;22.09;85.12;97276.37;588791;238;62680;-73
2022/06/27 06:08:55;;;;;;;;;;;;;;;22.09;85.08;97277.16;583659;241;68713;-73
2022/06/27 06:11:24;;;;;;;;;;;;;;;22.09;85.07;97287.07;584526;241;66853;-73
2022/06/27 06:13:52;;;;;;;;;;;;;;;22.08;85.25;97286.27;584484;241;64028;-72
2022/06/27 06:16:20;;;;;;;;;;;;;;;22.07;84.65;97278.50;586427;242;68884;-73
2022/06/27 06:18:52;;;;;;;;;;;;;;;22.09;85.45;97282.52;586479;242;68728;-72
2022/06/27 06:21:18;;;;;;;;;;;;;;;22.10;85.23;97292.16;586400;241;62886;-74
2022/06/27 06:23:45;;;;;;;;;;;;;;;22.12;83.73;97286.52;586351;242;66169;-67
2022/06/27 06:26:16;;;;;;;;;;;;;;;22.17;84.57;97289.20;586431;242;68577;-77
2022/06/27 06:28:42;;;;;;;;;;;;;;;22.29;80.66;97292.42;586415;242;65138;-73
2022/06/27 06:31:10;;;;;;;;;;;;;;;22.27;79.96;97283.84;586457;242;68430;-75
2022/06/27 06:33:38;;;;;;;;;;;;;;;22.23;80.78;97293.48;586442;242;68745;-75
2022/06/27 06:36:07;;;;;;;;;;;;;;;22.21;82.13;97290.30;586326;242;65705;-76
2022/06/27 06:38:35;;;;;;;;;;;;;;;22.20;82.68;97294.03;586318;242;69056;-74
2022/06/27 06:41:03;;;;;;;;;;;;;;;22.19;83.15;97297.00;585375;242;68539;-74
2022/06/27 06:43:30;;;;;;;;;;;;;;;22.19;83.50;97292.44;585734;242;64881;-74
2022/06/27 06:46:15;;;;;;;;;;;;;;;22.17;83.74;97295.34;573752;245;48529;-73
2022/06/27 06:48:45;;;;;;;;;;;;;;;22.17;83.88;97295.34;582152;241;46146;-73
2022/06/27 06:51:15;;;;;;;;;;;;;;;22.17;84.01;97291.88;588277;241;62777;-73
2022/06/27 06:53:41;;;;;;;;;;;;;;;22.17;84.10;97294.55;586729;241;68856;-73
2022/06/27 06:56:09;;;;;;;;;;;;;;;22.18;84.22;97296.20;586591;241;68519;-74
2022/06/27 06:58:36;;;;;;;;;;;;;;;22.17;84.35;97294.55;585582;242;65248;-74
2022/06/27 07:01:05;;;;;;;;;;;;;;;22.17;84.42;97295.34;585581;242;68751;-73
2022/06/27 07:03:33;;;;;;;;;;;;;;;22.19;84.49;97295.12;585550;242;68531;-73
2022/06/27 07:06:00;;;;;;;;;;;;;;;22.17;84.55;97292.66;585546;242;64927;-73
2022/06/27 07:08:30;;;;;;;;;;;;;;;22.18;84.79;97296.20;585624;242;68728;-73
2022/06/27 07:10:58;;;;;;;;;;;;;;;22.19;84.92;97299.67;586170;241;68720;-74
2022/06/27 07:13:25;;;;;;;;;;;;;;;22.19;84.83;97302.34;586648;242;65000;-76
2022/06/27 07:15:53;;;;;;;;;;;;;;;22.19;84.85;97297.80;586703;242;69878;-75
2022/06/27 07:18:20;;;;;;;;;;;;;;;22.19;84.91;97300.47;586717;242;67200;-73
2022/06/27 07:20:48;;;;;;;;;;;;;;;22.19;85.02;97303.14;586616;242;62752;-73
2022/06/27 07:23:16;;;;;;;;;;;;;;;22.19;85.08;97302.34;586755;242;66462;-73
2022/06/27 07:25:44;;;;;;;;;;;;;;;22.23;80.84;97303.39;586610;242;68840;-71
2022/06/27 07:28:12;;;;;;;;;;;;;;;22.27;80.84;97302.59;586655;242;62951;-74
2022/06/27 07:30:40;;;;;;;;;;;;;;;22.28;82.20;97301.50;586744;242;66471;-72
2022/06/27 07:33:08;;;;;;;;;;;;;;;22.28;81.95;97306.86;586647;242;69132;-73
2022/06/27 07:35:35;;;;;;;;;;;;;;;22.30;82.86;97306.59;586710;242;63685;-74
2022/06/27 07:38:04;;;;;;;;;;;;;;;22.29;79.79;97308.48;586717;242;68679;-71
2022/06/27 07:40:34;;;;;;;;;;;;;;;22.28;81.21;97311.42;586662;242;68410;-73
2022/06/27 07:43:01;;;;;;;;;;;;;;;22.27;81.57;97305.27;586733;242;62784;-74
2022/06/27 07:45:28;;;;;;;;;;;;;;;22.25;82.37;97304.73;586707;242;69087;-72
2022/06/27 07:47:56;;;;;;;;;;;;;;;22.25;82.92;97312.76;586715;242;68274;-71
2022/06/27 07:50:42;;;;;;;;;;;;;;;22.25;83.19;97312.76;586663;242;62771;-73
2022/06/27 07:53:15;;;;;;;;;;;;;;;22.25;83.42;97307.41;586531;242;66468;-72
2022/06/27 07:55:47;;;;;;;;;;;;;;;22.25;83.59;97311.97;579626;244;68472;-69
2022/06/27 07:58:16;;;;;;;;;;;;;;;22.24;83.74;97308.48;579661;244;63828;-73
2022/06/27 08:00:45;;;;;;;;;;;;;;;22.25;83.77;97312.76;579695;244;68368;-72
2022/06/27 08:05:58;;;;;;;;;;;;;;;22.24;83.93;97308.48;579705;244;62900;-73
2022/06/27 08:08:26;;;;;;;;;;;;;;;22.23;83.97;97304.19;579624;244;68848;-75
2022/06/27 08:10:55;;;;;;;;;;;;;;;22.24;84.04;97295.11;579654;244;68647;-73
2022/06/27 08:13:23;;;;;;;;;;;;;;;22.24;84.13;97310.37;579632;244;62803;-73
2022/06/27 08:15:50;;;;;;;;;;;;;;;22.24;84.18;97316.52;579595;244;66485;-73
2022/06/27 08:18:18;;;;;;;;;;;;;;;22.24;84.20;97305.81;579734;244;66435;-71
2022/06/27 08:20:49;;;;;;;;;;;;;;;22.24;84.28;97307.70;579702;244;62831;-67
2022/06/27 08:23:18;;;;;;;;;;;;;;;22.24;84.33;97311.17;579620;244;69908;-72
2022/06/27 08:25:47;;;;;;;;;;;;;;;22.24;84.30;97321.88;579636;244;68760;-75
2022/06/27 08:28:16;;;;;;;;;;;;;;;22.24;81.35;97316.52;579702;244;65206;-75
2022/06/27 08:30:44;;;;;;;;;;;;;;;22.28;82.61;97319.45;579656;244;66498;-73
2022/06/27 08:33:14;;;;;;;;;;;;;;;22.27;83.69;97315.18;579748;244;66257;-75
2022/06/27 08:35:47;;;;;;;;;;;;;;;22.25;84.01;97311.97;579632;244;64933;-72
2022/06/27 08:38:12;;;;;;;;;;;;;;;22.24;84.06;97310.37;579580;244;66571;-70
2022/06/27 08:40:39;;;;;;;;;;;;;;;22.25;84.13;97311.97;579694;244;66783;-70
2022/06/27 08:43:09;;;;;;;;;;;;;;;22.27;83.81;97307.95;579710;244;62835;-70
2022/06/27 08:45:36;;;;;;;;;;;;;;;22.26;84.07;97303.67;579669;244;66532;-65
2022/06/27 08:48:07;;;;;;;;;;;;;;;22.27;83.96;97304.47;579645;244;66654;-64
2022/06/27 08:50:34;;;;;;;;;;;;;;;22.26;83.88;97313.56;579095;244;63843;-68
2022/06/27 08:53:02;;;;;;;;;;;;;;;22.25;83.83;97312.76;578854;244;68892;-71
2022/06/27 08:55:33;;;;;;;;;;;;;;;22.26;83.76;97319.73;586263;242;68559;-68
2022/06/27 08:58:11;;;;;;;;;;;;;;;22.27;83.79;97310.63;586410;241;64921;-70
2022/06/27 09:00:37;;;;;;;;;;;;;;;22.25;83.86;97318.11;586308;242;68537;-74
2022/06/27 09:03:06;;;;;;;;;;;;;;;22.25;84.03;97311.97;586465;242;68873;-72
2022/06/27 09:05:34;;;;;;;;;;;;;;;22.26;84.10;97309.03;586367;242;62827;-72
2022/06/27 09:08:04;;;;;;;;;;;;;;;22.25;84.12;97307.41;586447;242;68888;-73
2022/06/27 09:10:36;;;;;;;;;;;;;;;22.26;84.10;97316.23;586472;242;66524;-73
2022/06/27 09:13:08;;;;;;;;;;;;;;;22.25;84.16;97307.41;586449;242;62788;-67
2022/06/27 09:15:49;;;;;;;;;;;;;;;22.26;84.11;97309.03;586471;242;69591;-71
2022/06/27 09:18:17;;;;;;;;;;;;;;;22.26;83.57;97306.35;586464;242;66444;-71
2022/06/27 09:20:47;;;;;;;;;;;;;;;22.26;83.47;97298.32;586417;242;63033;-73
2022/06/27 09:23:27;;;;;;;;;;;;;;;22.26;84.01;97301.00;586459;241;66496;-74
2022/06/27 09:25:58;;;;;;;;;;;;;;;22.26;84.03;97292.97;586510;242;50798;-75
2022/06/27 09:28:34;;;;;;;;;;;;;;;22.27;84.02;97299.12;586332;242;65112;-75
2022/06/27 09:31:01;;;;;;;;;;;;;;;22.27;83.97;97307.95;586226;241;68643;-72
2022/06/27 09:33:37;;;;;;;;;;;;;;;22.26;84.02;97303.67;586274;242;68568;-74
2022/06/27 09:35:58;;;;;;;;;;;;;;;22.27;84.05;97305.27;586208;241;62828;-71
2022/06/27 09:38:26;;;;;;;;;;;;;;;22.27;84.05;97307.95;586418;242;66543;-74
2022/06/27 09:40:53;;;;;;;;;;;;;;;22.27;84.04;97301.80;586370;242;66528;-72
2022/06/27 09:43:22;;;;;;;;;;;;;;;22.25;83.99;97296.70;586454;242;62734;-71
2022/06/27 09:45:51;;;;;;;;;;;;;;;22.27;83.96;97299.91;586326;242;68616;-72
2022/06/27 09:48:18;;;;;;;;;;;;;;;22.27;83.99;97301.80;586427;242;66328;-73
2022/06/27 09:50:48;;;;;;;;;;;;;;;22.27;84.01;97299.91;586434;242;65149;-71
2022/06/27 09:53:16;;;;;;;;;;;;;;;22.28;84.04;97301.50;586026;242;66476;-71
2022/06/27 09:55:45;;;;;;;;;;;;;;;22.27;84.08;97305.27;579778;244;69218;-71
2022/06/27 09:58:13;;;;;;;;;;;;;;;22.27;84.08;97299.91;579628;244;65685;-68
2022/06/27 10:00:42;;;;;;;;;;;;;;;22.27;84.07;97297.23;579697;244;68683;-71
2022/06/27 10:03:09;;;;;;;;;;;;;;;22.28;84.05;97301.50;579591;244;68771;-72
2022/06/27 10:05:37;;;;;;;;;;;;;;;22.28;84.03;97301.50;579629;244;64876;-70
2022/06/27 10:08:05;;;;;;;;;;;;;;;22.29;84.10;97304.98;579743;244;66486;-70
2022/06/27 10:10:34;;;;;;;;;;;;;;;22.28;84.10;97303.39;579631;244;68665;-70
2022/06/27 10:13:04;;;;;;;;;;;;;;;22.28;84.15;97301.50;578673;244;62838;-70
2022/06/27 10:15:33;;;;;;;;;;;;;;;22.28;84.17;97301.50;579599;244;66360;-70
2022/06/27 10:18:02;;;;;;;;;;;;;;;22.29;84.17;97299.62;579653;244;66463;-70
2022/06/27 10:20:32;;;;;;;;;;;;;;;22.29;84.24;97303.13;579708;244;65134;-71
2022/06/27 10:23:07;;;;;;;;;;;;;;;22.32;83.75;97305.26;579695;244;68934;-70
2022/06/27 10:25:36;;;;;;;;;;;;;;;22.31;84.02;97311.67;579647;244;68715;-74
2022/06/27 10:28:16;;;;;;;;;;;;;;;22.30;83.89;97303.92;579486;244;64920;-71
2022/06/27 10:30:42;;;;;;;;;;;;;;;22.35;82.60;97295.87;579469;244;66502;-71
2022/06/27 10:33:20;;;;;;;;;;;;;;;22.33;83.89;97298.02;587394;241;66015;-70
2022/06/27 10:36:21;;;;;;;;;;;;;;;22.33;83.85;97281.95;581089;244;62752;-71
2022/06/27 10:38:32;;;;;;;;;;;;;;;22.30;83.88;97277.95;569644;248;69664;-70
2022/06/27 10:41:04;;;;;;;;;;;;;;;22.31;83.92;97274.18;579013;243;47262;-71
2022/06/27 10:43:46;;;;;;;;;;;;;;;22.32;83.68;97277.69;588723;241;65158;-71
2022/06/27 10:46:19;;;;;;;;;;;;;;;22.31;83.93;97273.39;588498;241;68754;-70
2022/06/27 10:48:48;;;;;;;;;;;;;;;22.32;83.82;97275.01;580985;244;67430;-72
2022/06/27 10:51:26;;;;;;;;;;;;;;;22.30;83.93;97271.80;574941;246;64899;-71
2022/06/27 10:53:54;;;;;;;;;;;;;;;22.20;83.91;97256.55;577032;242;66665;-72
2022/06/27 10:56:32;;;;;;;;;;;;;;;22.31;83.91;97268.03;577135;245;66489;-71
2022/06/27 10:59:03;;;;;;;;;;;;;;;22.31;83.87;97263.47;579244;245;46328;-72
2022/06/27 11:01:31;;;;;;;;;;;;;;;22.32;83.89;97272.33;579050;245;67818;-71
2022/06/27 11:03:58;;;;;;;;;;;;;;;22.32;83.97;97265.09;579247;245;66493;-72
2022/06/27 11:06:28;;;;;;;;;;;;;;;22.33;83.89;97266.69;577018;242;43679;-72
2022/06/27 11:08:56;;;;;;;;;;;;;;;22.33;83.78;97269.36;576574;246;68711;-72
2022/06/27 11:11:25;;;;;;;;;;;;;;;22.33;83.75;97264.01;571088;247;69053;-72
2022/06/27 11:13:54;;;;;;;;;;;;;;;22.34;83.78;97262.13;577922;245;65104;-68
2022/06/27 11:16:25;;;;;;;;;;;;;;;22.34;83.25;97257.59;578065;245;66513;-71
2022/06/27 11:18:55;;;;;;;;;;;;;;;22.33;83.58;97261.33;578077;245;66507;-72
2022/06/27 11:21:23;;;;;;;;;;;;;;;22.33;83.38;97253.30;577079;242;64939;-72
2022/06/27 11:23:53;;;;;;;;;;;;;;;22.33;83.47;97252.50;577945;245;68855;-71
2022/06/27 11:26:22;;;;;;;;;;;;;;;22.34;83.56;97256.77;577766;245;68551;-72
2022/06/27 11:34:21;;;;;;;;;;;;;;;22.32;83.51;97265.09;578076;245;66607;-70
2022/06/27 11:36:49;;;;;;;;;;;;;;;22.33;83.53;97261.33;577924;245;65073;-70
2022/06/27 11:39:18;;;;;;;;;;;;;;;22.32;83.53;97267.77;577417;245;66592;-70
2022/06/27 11:41:45;;;;;;;;;;;;;;;22.34;83.47;97267.48;571920;244;69475;-72
2022/06/27 11:44:14;;;;;;;;;;;;;;;22.34;83.45;97267.48;571912;248;64737;-71
2022/06/27 11:46:49;;;;;;;;;;;;;;;22.34;83.42;97267.48;571342;248;68687;-72
2022/06/27 11:49:16;;;;;;;;;;;;;;;22.34;83.45;97273.66;571860;247;48363;-70
2022/06/27 11:51:47;;;;;;;;;;;;;;;22.34;83.41;97268.30;572035;248;64745;-72
2022/06/27 11:54:18;;;;;;;;;;;;;;;22.35;83.39;97275.25;575634;244;68550;-78
2022/06/27 11:56:48;;;;;;;;;;;;;;;22.35;83.39;97269.11;580149;244;68527;-73
2022/06/27 11:59:19;;;;;;;;;;;;;;;22.34;83.36;97270.98;580160;244;63064;-69
2022/06/27 12:01:51;;;;;;;;;;;;;;;22.34;83.44;97268.30;583283;242;66145;-69
2022/06/27 12:04:20;;;;;;;;;;;;;;;22.36;83.42;97270.70;586306;242;68704;-72
2022/06/27 12:06:48;;;;;;;;;;;;;;;22.35;83.47;97275.25;586539;242;65196;-71
2022/06/27 12:09:15;;;;;;;;;;;;;;;22.35;83.50;97274.45;586476;242;68278;-70
2022/06/27 12:11:50;;;;;;;;;;;;;;;22.35;83.52;97264.55;586391;242;66274;-71
2022/06/27 12:14:17;;;;;;;;;;;;;;;22.36;83.53;97257.31;586459;242;65116;-70
2022/06/27 12:16:47;;;;;;;;;;;;;;;22.36;83.58;97257.31;586473;242;68407;-71
2022/06/27 12:19:14;;;;;;;;;;;;;;;22.35;83.66;97253.83;586461;242;66558;-70
2022/06/27 12:21:42;;;;;;;;;;;;;;;22.36;83.66;97251.95;586439;242;64986;-69
2022/06/27 12:24:12;;;;;;;;;;;;;;;22.35;83.63;97245.80;586443;242;68785;-69
2022/06/27 12:26:39;;;;;;;;;;;;;;;22.36;83.67;97249.27;586334;242;68893;-71
2022/06/27 12:29:07;;;;;;;;;;;;;;;22.35;83.68;97248.48;586473;242;64926;-70
2022/06/27 12:31:35;;;;;;;;;;;;;;;22.36;83.69;97244.72;586411;242;66143;-73
2022/06/27 12:34:03;;;;;;;;;;;;;;;22.36;83.65;97244.72;586381;242;66489;-68
2022/06/27 12:36:32;;;;;;;;;;;;;;;22.36;83.68;97242.03;586461;242;65108;-72
2022/06/27 12:39:00;;;;;;;;;;;;;;;22.37;83.74;97235.63;586421;242;69042;-70
2022/06/27 12:41:28;;;;;;;;;;;;;;;22.41;80.44;97235.08;586387;242;66565;-71
2022/06/27 12:43:57;;;;;;;;;;;;;;;22.41;82.31;97235.08;586442;242;62829;-71
2022/06/27 12:46:25;;;;;;;;;;;;;;;22.38;82.24;97229.19;586422;242;68435;-73
2022/06/27 12:48:55;;;;;;;;;;;;;;;22.38;82.70;97231.86;586370;242;68564;-71
2022/06/27 12:51:24;;;;;;;;;;;;;;;22.38;82.87;97234.54;586441;242;64960;-71
2022/06/27 12:53:52;;;;;;;;;;;;;;;22.38;82.95;97225.71;586220;242;67688;-71
2022/06/27 12:56:20;;;;;;;;;;;;;;;22.38;83.03;97220.36;586443;242;66437;-71
2022/06/27 12:58:47;;;;;;;;;;;;;;;22.37;83.07;97227.59;586423;242;65166;-70
2022/06/27 13:01:15;;;;;;;;;;;;;;;22.38;83.11;97223.03;586344;242;68818;-69
2022/06/27 13:03:44;;;;;;;;;;;;;;;22.37;83.13;97227.59;586388;242;68564;-71
2022/06/27 13:06:11;;;;;;;;;;;;;;;22.37;83.12;97227.59;586437;242;65098;-70
2022/06/27 13:08:39;;;;;;;;;;;;;;;22.37;83.17;97230.27;586383;242;68765;-70